Time,TemperatureF,DewpointF,PressureIn,WindDirection,WindDirectionDegrees,WindSpeedMPH,WindSpeedGustMPH,Humidity,HourlyPrecipIn,Conditions,Clouds,dailyrainin,SoftwareType,DateUTC
2013-09-05 00:00:00,44.0,40.0,29.63,South,185,1.0,5.0,85,0.00,,,0.14,,2013-09-05 08:00:00,
2013-09-05 00:42:00,44.0,40.0,29.63,South,185,1.0,5.0,85,0.00,,,0.14,,2013-09-05 08:42:00,
2013-09-05 00:52:00,44.0,40.0,29.63,South,185,1.0,5.0,85,0.00,,,0.14,,2013-09-05 08:52:00,
2013-09-05 01:00:00,45.0,40.0,29.65,ESE,121,2.0,9.0,84,0.00,,,0.14,,2013-09-05 09:00:00,
2013-09-05 01:43:00,45.0,40.0,29.65,ESE,121,2.0,9.0,84,0.00,,,0.14,,2013-09-05 09:43:00,
2013-09-05 01:53:00,45.0,40.0,29.65,ESE,121,2.0,9.0,84,0.00,,,0.14,,2013-09-05 09:53:00,
2013-09-05 02:00:00,42.0,41.0,29.68,SW,227,6.0,12.0,96,0.00,,,0.14,,2013-09-05 10:00:00,
2013-09-05 02:43:00,42.0,41.0,29.68,SW,227,6.0,12.0,96,0.00,,,0.14,,2013-09-05 10:43:00,
2013-09-05 02:53:00,42.0,41.0,29.68,SW,227,6.0,12.0,96,0.00,,,0.14,,2013-09-05 10:53:00,
2013-09-05 03:00:00,41.0,40.0,29.70,WSW,246,7.0,14.0,97,0.00,,,0.14,,2013-09-05 11:00:00,
2013-09-05 03:43:00,41.0,40.0,29.70,WSW,246,7.0,14.0,97,0.00,,,0.14,,2013-09-05 11:43:00,
2013-09-05 03:52:00,41.0,40.0,29.70,WSW,246,7.0,14.0,97,0.00,,,0.14,,2013-09-05 11:52:00,
2013-09-05 04:00:00,40.0,39.0,29.73,SW,232,5.0,16.0,97,0.00,,,0.14,,2013-09-05 12:00:00,
2013-09-05 04:42:00,40.0,39.0,29.73,SW,232,5.0,16.0,97,0.00,,,0.14,,2013-09-05 12:42:00,
2013-09-05 04:52:00,40.0,39.0,29.73,SW,232,5.0,16.0,97,0.00,,,0.14,,2013-09-05 12:52:00,
2013-09-05 05:00:00,40.0,39.0,29.74,SW,235,4.0,12.0,97,0.00,,,0.14,,2013-09-05 13:00:00,
2013-09-05 05:42:00,40.0,39.0,29.74,SW,235,4.0,12.0,97,0.00,,,0.14,,2013-09-05 13:42:00,
2013-09-05 05:53:00,40.0,39.0,29.74,SW,235,4.0,12.0,97,0.00,,,0.14,,2013-09-05 13:53:00,
2013-09-05 06:00:00,39.0,38.0,29.77,SSW,196,2.0,7.0,97,0.00,,,0.14,,2013-09-05 14:00:00,
2013-09-05 06:42:00,39.0,38.0,29.77,SSW,196,2.0,7.0,97,0.00,,,0.14,,2013-09-05 14:42:00,
2013-09-05 06:52:00,39.0,38.0,29.77,SSW,196,2.0,7.0,97,0.00,,,0.14,,2013-09-05 14:52:00,
2013-09-05 07:00:00,39.0,38.0,29.78,SW,218,2.0,10.0,97,0.00,,,0.14,,2013-09-05 15:00:00,
2013-09-05 07:44:00,39.0,38.0,29.78,SW,218,2.0,10.0,97,0.00,,,0.14,,2013-09-05 15:44:00,
2013-09-05 07:54:00,39.0,38.0,29.78,SW,218,2.0,10.0,97,0.00,,,0.14,,2013-09-05 15:54:00,
2013-09-05 08:00:00,40.0,39.0,29.79,SW,227,2.0,6.0,97,0.00,,,0.14,,2013-09-05 16:00:00,
2013-09-05 08:43:00,40.0,39.0,29.79,SW,227,2.0,6.0,97,0.00,,,0.14,,2013-09-05 16:43:00,
2013-09-05 08:54:00,40.0,39.0,29.79,SW,227,2.0,6.0,97,0.00,,,0.14,,2013-09-05 16:54:00,
2013-09-05 09:00:00,43.0,41.0,29.80,East,89,1.0,4.0,93,0.00,,,0.14,,2013-09-05 17:00:00,
2013-09-05 09:43:00,43.0,41.0,29.80,East,89,1.0,4.0,93,0.00,,,0.14,,2013-09-05 17:43:00,
2013-09-05 09:52:00,43.0,41.0,29.80,East,89,1.0,4.0,93,0.00,,,0.14,,2013-09-05 17:52:00,
2013-09-05 10:00:00,42.0,41.0,29.81,ENE,67,5.0,9.0,96,0.00,,,0.14,,2013-09-05 18:00:00,
2013-09-05 10:43:00,42.0,41.0,29.81,ENE,67,5.0,9.0,96,0.00,,,0.14,,2013-09-05 18:43:00,
2013-09-05 10:52:00,42.0,41.0,29.81,ENE,67,5.0,9.0,96,0.00,,,0.14,,2013-09-05 18:52:00,
2013-09-05 11:00:00,42.0,40.0,29.82,ENE,73,6.0,11.0,93,0.00,,,0.14,,2013-09-05 19:00:00,
2013-09-05 11:42:00,42.0,40.0,29.82,ENE,73,6.0,11.0,93,0.00,,,0.14,,2013-09-05 19:42:00,
2013-09-05 11:52:00,42.0,40.0,29.82,ENE,73,6.0,11.0,93,0.00,,,0.14,,2013-09-05 19:52:00,
2013-09-05 12:00:00,45.0,43.0,29.84,ENE,74,5.0,10.0,93,0.00,,,0.14,,2013-09-05 20:00:00,
2013-09-05 12:43:00,45.0,43.0,29.84,ENE,74,5.0,10.0,93,0.00,,,0.14,,2013-09-05 20:43:00,
2013-09-05 12:52:00,45.0,43.0,29.84,ENE,74,5.0,10.0,93,0.00,,,0.14,,2013-09-05 20:52:00,
2013-09-05 13:00:00,48.0,43.0,29.84,East,79,5.0,11.0,83,0.00,,,0.13,,2013-09-05 21:00:00,
2013-09-05 13:44:00,48.0,43.0,29.84,East,79,5.0,11.0,83,0.00,,,0.13,,2013-09-05 21:44:00,
2013-09-05 13:54:00,48.0,43.0,29.84,East,79,5.0,11.0,83,0.00,,,0.13,,2013-09-05 21:54:00,
2013-09-05 14:00:00,49.0,42.0,29.85,ENE,72,5.0,13.0,76,0.00,,,0.04,,2013-09-05 22:00:00,
2013-09-05 14:43:00,49.0,42.0,29.85,ENE,72,5.0,13.0,76,0.00,,,0.04,,2013-09-05 22:43:00,
2013-09-05 14:53:00,49.0,42.0,29.85,ENE,72,5.0,13.0,76,0.00,,,0.04,,2013-09-05 22:53:00,
2013-09-05 15:00:00,51.0,42.0,29.86,East,80,5.0,11.0,72,0.00,,,0.01,,2013-09-05 23:00:00,
2013-09-05 15:42:00,51.0,42.0,29.86,East,80,5.0,11.0,72,0.00,,,0.01,,2013-09-05 23:42:00,
2013-09-05 15:53:00,51.0,42.0,29.86,East,80,5.0,11.0,72,0.00,,,0.01,,2013-09-05 23:53:00,
2013-09-05 16:00:00,50.0,42.0,29.87,East,88,3.0,11.0,73,0.00,,,-99.99,,2013-09-06 00:00:00,
2013-09-05 16:42:00,50.0,42.0,29.87,East,88,3.0,11.0,73,0.00,,,-99.99,,2013-09-06 00:42:00,
2013-09-05 16:52:00,50.0,42.0,29.87,East,88,3.0,11.0,73,0.00,,,-99.99,,2013-09-06 00:52:00,
2013-09-05 17:00:00,51.0,41.0,29.87,South,190,1.0,6.0,67,0.00,,,0.01,,2013-09-06 01:00:00,
2013-09-05 17:42:00,51.0,41.0,29.87,South,190,1.0,6.0,67,0.00,,,0.01,,2013-09-06 01:42:00,
2013-09-05 17:52:00,51.0,41.0,29.87,South,190,1.0,6.0,67,0.00,,,0.01,,2013-09-06 01:52:00,
2013-09-05 18:00:00,50.0,41.0,29.87,ESE,110,2.0,4.0,70,0.00,,,0.00,,2013-09-06 02:00:00,
2013-09-05 18:42:00,50.0,41.0,29.87,ESE,110,2.0,4.0,70,0.00,,,0.00,,2013-09-06 02:42:00,
2013-09-05 18:52:00,50.0,41.0,29.87,ESE,110,2.0,4.0,70,0.00,,,0.00,,2013-09-06 02:52:00,
2013-09-05 19:00:00,49.0,41.0,29.87,ENE,65,2.0,6.0,75,0.00,,,0.00,,2013-09-06 03:00:00,
2013-09-05 19:44:00,49.0,41.0,29.87,ENE,65,2.0,6.0,75,0.00,,,0.00,,2013-09-06 03:44:00,
2013-09-05 19:55:00,49.0,41.0,29.87,ENE,65,2.0,6.0,75,0.00,,,0.00,,2013-09-06 03:55:00,
2013-09-05 20:00:00,47.0,41.0,29.89,ENE,68,3.0,6.0,81,0.00,,,0.00,,2013-09-06 04:00:00,
2013-09-05 20:44:00,47.0,41.0,29.89,ENE,68,3.0,6.0,81,0.00,,,0.00,,2013-09-06 04:44:00,
2013-09-05 20:54:00,47.0,41.0,29.89,ENE,68,3.0,6.0,81,0.00,,,0.00,,2013-09-06 04:54:00,
2013-09-05 21:00:00,46.0,41.0,29.90,ENE,73,3.0,6.0,83,0.00,,,0.00,,2013-09-06 05:00:00,
2013-09-05 21:43:00,46.0,41.0,29.90,ENE,73,3.0,6.0,83,0.00,,,0.00,,2013-09-06 05:43:00,
2013-09-05 21:52:00,46.0,41.0,29.90,ENE,73,3.0,6.0,83,0.00,,,0.00,,2013-09-06 05:52:00,
2013-09-05 22:00:00,45.0,39.0,29.90,East,98,2.0,6.0,80,0.00,,,0.00,,2013-09-06 06:00:00,
2013-09-05 22:42:00,45.0,39.0,29.90,East,98,2.0,6.0,80,0.00,,,0.00,,2013-09-06 06:42:00,
2013-09-05 22:53:00,45.0,39.0,29.90,East,98,2.0,6.0,80,0.00,,,0.00,,2013-09-06 06:53:00,
2013-09-05 23:00:00,42.0,39.0,29.92,NW,312,2.0,5.0,89,0.00,,,0.00,,2013-09-06 07:00:00,
2013-09-05 23:42:00,42.0,39.0,29.92,NW,312,2.0,5.0,89,0.00,,,0.00,,2013-09-06 07:42:00,
2013-09-05 23:52:00,42.0,39.0,29.92,NW,312,2.0,5.0,89,0.00,,,0.00,,2013-09-06 07:52:00,